Time;durP1;ratioP1;P1;durP2;ratioP2;P2;SDS_P1;SDS_P2;PMS_P1;PMS_P2;Temp;Humidity;BMP_temperature;BMP_pressure;BME280_temperature;BME280_humidity;BME280_pressure;Samples;Min_cycle;Max_cycle;Signal;HPM_P1;HPM_P2
2022/05/23 00:01:58;;;;;;;5.28;1.77;;;15.30;99.90;;;;;;5031759;28;20045;-75
2022/05/23 00:04:24;;;;;;;4.05;1.80;;;15.40;99.90;;;;;;5013888;28;20080;-75
2022/05/23 00:06:49;;;;;;;3.85;1.70;;;15.20;99.90;;;;;;5031645;28;20053;-75
2022/05/23 00:09:16;;;;;;;8.73;2.20;;;15.30;99.90;;;;;;5029451;28;20037;-75
2022/05/23 00:11:42;;;;;;;4.97;1.52;;;15.00;99.90;;;;;;5030219;28;20044;-75
2022/05/23 00:14:08;;;;;;;4.10;1.85;;;15.20;99.90;;;;;;5031743;28;20038;-75
2022/05/23 00:16:37;;;;;;;5.50;2.20;;;15.10;99.90;;;;;;5031585;28;20041;-75
2022/05/23 00:19:04;;;;;;;4.72;1.75;;;14.90;99.90;;;;;;5029781;28;20099;-75
2022/05/23 00:21:29;;;;;;;5.55;1.65;;;15.00;99.90;;;;;;5031356;28;20053;-75
2022/05/23 00:23:55;;;;;;;2.97;1.50;;;15.00;99.90;;;;;;5031271;28;20053;-75
2022/05/23 00:26:21;;;;;;;3.33;1.65;;;15.20;99.90;;;;;;5029981;28;20041;-75
2022/05/23 00:28:48;;;;;;;3.22;2.03;;;15.10;99.90;;;;;;5031590;28;20038;-76
2022/05/23 00:31:15;;;;;;;3.72;2.20;;;14.80;99.90;;;;;;5030624;28;20051;-75
2022/05/23 00:36:29;;;;;;;3.05;1.70;;;15.10;99.90;;;;;;5091062;28;20409;-68
2022/05/23 00:38:54;;;;;;;2.42;1.48;;;14.90;99.90;;;;;;5090669;28;20036;-68
2022/05/23 00:44:32;;;;;;;5.75;2.15;;;14.90;99.90;;;;;;5072769;28;20052;-69
2022/05/23 00:47:18;;;;;;;4.82;1.80;;;14.90;99.90;;;;;;5072785;28;20052;-68
2022/05/23 00:49:44;;;;;;;5.43;1.75;;;14.80;99.90;;;;;;5072039;28;20040;-68
2022/05/23 00:52:16;;;;;;;5.32;1.90;;;14.90;99.90;;;;;;5075588;28;20040;-69
2022/05/23 00:54:47;;;;;;;3.42;1.65;;;14.80;99.90;;;;;;5076458;28;20047;-69
2022/05/23 00:57:17;;;;;;;3.75;1.58;;;14.90;99.90;;;;;;5094742;28;20075;-68
2022/05/23 00:59:43;;;;;;;2.58;1.70;;;15.10;99.90;;;;;;5058855;28;20077;-68
2022/05/23 01:02:11;;;;;;;3.55;1.70;;;14.80;99.90;;;;;;5094324;28;20434;-68
2022/05/23 01:04:38;;;;;;;3.83;1.80;;;14.70;99.90;;;;;;5076144;28;20043;-68
2022/05/23 01:07:05;;;;;;;3.50;1.60;;;14.80;99.90;;;;;;5075916;28;20448;-68
2022/05/23 01:09:31;;;;;;;4.13;1.55;;;14.80;99.90;;;;;;5075601;28;20371;-68
2022/05/23 01:11:59;;;;;;;3.88;1.75;;;15.30;99.90;;;;;;5076130;28;20131;-68
2022/05/23 01:14:25;;;;;;;4.10;2.00;;;14.80;99.90;;;;;;5076132;28;20397;-68
2022/05/23 01:16:51;;;;;;;5.85;1.73;;;14.60;99.90;;;;;;5093974;28;20044;-68
2022/05/23 01:19:16;;;;;;;2.95;1.63;;;15.40;99.90;;;;;;5075396;28;20050;-68
2022/05/23 01:21:58;;;;;;;3.97;1.63;;;14.70;99.90;;;;;;5075832;28;20039;-68
2022/05/23 01:24:32;;;;;;;6.78;1.50;;;14.70;99.90;;;;;;5077125;28;20425;-68
2022/05/23 01:26:58;;;;;;;5.07;1.60;;;14.80;99.90;;;;;;5093937;28;20055;-68
2022/05/23 01:29:24;;;;;;;7.47;1.95;;;14.80;99.90;;;;;;5092992;28;20086;-68
2022/05/23 01:31:49;;;;;;;2.72;1.70;;;14.70;99.90;;;;;;5075656;28;20032;-68
2022/05/23 01:34:15;;;;;;;4.43;1.70;;;15.90;99.90;;;;;;5058997;28;20082;-68
2022/05/23 01:36:40;;;;;;;2.67;1.65;;;15.00;99.90;;;;;;5075995;28;20439;-68
2022/05/23 01:39:06;;;;;;;5.40;1.50;;;15.10;99.90;;;;;;5058436;28;20043;-67
2022/05/23 01:41:31;;;;;;;3.53;1.65;;;15.00;99.90;;;;;;5093636;28;20051;-68
2022/05/23 01:43:57;;;;;;;4.10;1.63;;;14.90;99.90;;;;;;5093363;28;20040;-68
2022/05/23 01:46:23;;;;;;;4.65;1.70;;;14.90;99.90;;;;;;5093931;28;20063;-68
2022/05/23 01:48:48;;;;;;;3.58;1.55;;;14.90;99.90;;;;;;5075749;28;20085;-69
2022/05/23 01:51:14;;;;;;;6.30;1.60;;;15.00;99.90;;;;;;5074581;28;20036;-68
2022/05/23 01:53:41;;;;;;;3.05;1.30;;;14.90;99.90;;;;;;5075115;28;20047;-68
2022/05/23 01:56:08;;;;;;;3.60;1.50;;;14.90;99.90;;;;;;5075172;28;20050;-68
2022/05/23 02:01:18;;;;;;;4.00;1.58;;;14.90;99.90;;;;;;5074928;28;20043;-68
2022/05/23 02:03:46;;;;;;;3.78;1.52;;;15.20;99.90;;;;;;5073979;28;20076;-68
2022/05/23 02:06:12;;;;;;;3.28;1.52;;;15.10;99.90;;;;;;5075149;28;20397;-68
2022/05/23 02:08:38;;;;;;;4.03;2.15;;;14.80;99.90;;;;;;5058175;28;20494;-68
2022/05/23 02:11:08;;;;;;;3.00;1.70;;;15.10;99.90;;;;;;5092179;28;20040;-68
2022/05/23 02:13:36;;;;;;;4.18;1.75;;;15.00;99.90;;;;;;5074923;28;20039;-68
2022/05/23 02:16:02;;;;;;;7.28;1.60;;;14.90;99.90;;;;;;5074737;28;20044;-69
2022/05/23 02:18:29;;;;;;;4.65;1.80;;;14.90;99.90;;;;;;5092825;28;20046;-68
2022/05/23 02:20:55;;;;;;;2.58;1.20;;;15.00;99.90;;;;;;5074297;28;20398;-68
2022/05/23 02:23:21;;;;;;;4.43;1.40;;;14.80;99.90;;;;;;5074515;28;20036;-68
2022/05/23 02:25:46;;;;;;;4.30;1.50;;;14.80;99.90;;;;;;5092773;28;20038;-69
2022/05/23 02:28:13;;;;;;;3.05;1.70;;;14.70;99.90;;;;;;5093157;28;20120;-68
2022/05/23 02:30:38;;;;;;;4.72;1.70;;;14.60;99.90;;;;;;5074567;28;20032;-68
2022/05/23 02:33:04;;;;;;;6.25;2.03;;;14.60;99.90;;;;;;5075179;28;20416;-68
2022/05/23 02:35:30;;;;;;;2.97;1.38;;;14.70;99.90;;;;;;5074570;28;20036;-68
2022/05/23 02:37:55;;;;;;;5.72;1.85;;;14.70;99.90;;;;;;5074328;28;20520;-68
2022/05/23 02:40:21;;;;;;;4.70;1.92;;;14.50;99.90;;;;;;5091682;28;20044;-68
2022/05/23 02:42:47;;;;;;;4.97;1.70;;;14.40;99.90;;;;;;5092622;28;20075;-68
2022/05/23 02:45:12;;;;;;;6.07;1.90;;;14.30;99.90;;;;;;5074191;28;20040;-68
2022/05/23 02:47:39;;;;;;;3.05;1.35;;;14.30;99.90;;;;;;5092428;28;20047;-68
2022/05/23 02:50:08;;;;;;;3.45;1.98;;;14.20;99.90;;;;;;5091545;28;20102;-68
2022/05/23 02:52:33;;;;;;;2.63;1.35;;;14.20;99.90;;;;;;5092204;28;20036;-68
2022/05/23 02:54:59;;;;;;;4.22;1.52;;;14.30;99.90;;;;;;5073867;28;20097;-68
2022/05/23 02:57:25;;;;;;;2.85;1.73;;;14.30;99.90;;;;;;5092448;28;20046;-68
2022/05/23 02:59:50;;;;;;;3.60;1.77;;;14.10;99.90;;;;;;5073216;28;20035;-68
2022/05/23 03:05:00;;;;;;;2.53;1.50;;;;;;;;;;5073716;28;20189;-68
2022/05/23 03:07:26;;;;;;;3.10;1.80;;;14.10;99.90;;;;;;5091895;28;20068;-68
2022/05/23 03:09:51;;;;;;;3.00;1.67;;;14.30;99.90;;;;;;5091347;28;20040;-68
2022/05/23 03:12:17;;;;;;;7.68;1.95;;;14.10;99.90;;;;;;5057150;28;20066;-68
2022/05/23 03:14:42;;;;;;;5.63;2.00;;;13.90;99.90;;;;;;5073609;28;20567;-67
2022/05/23 03:17:08;;;;;;;3.13;2.05;;;13.90;99.90;;;;;;5057036;28;20417;-68
2022/05/23 03:19:39;;;;;;;6.38;1.88;;;13.90;99.90;;;;;;5072874;28;20039;-68
2022/05/23 03:27:39;;;;;;;3.28;1.67;;;14.00;99.90;;;;;;5073387;28;20106;-68
2022/05/23 03:30:06;;;;;;;4.13;1.75;;;13.80;99.90;;;;;;5073166;28;20067;-68
2022/05/23 03:32:31;;;;;;;2.95;1.90;;;13.90;99.90;;;;;;5092352;28;20051;-68
2022/05/23 03:34:57;;;;;;;3.55;1.65;;;14.00;99.90;;;;;;5091636;28;20036;-68
2022/05/23 03:37:24;;;;;;;7.20;1.98;;;13.90;99.90;;;;;;5073775;28;20097;-68
2022/05/23 03:39:50;;;;;;;8.57;2.22;;;14.00;99.90;;;;;;5072897;28;20072;-68
2022/05/23 03:42:16;;;;;;;8.38;2.78;;;14.20;99.90;;;;;;5091628;28;20079;-68
2022/05/23 03:44:41;;;;;;;3.15;2.15;;;14.00;99.90;;;;;;5091583;28;20044;-69
2022/05/23 03:47:07;;;;;;;4.70;2.30;;;13.70;99.90;;;;;;5091682;28;20039;-69
2022/05/23 03:49:32;;;;;;;8.10;2.13;;;13.90;99.90;;;;;;5072734;28;20040;-68
2022/05/23 03:51:59;;;;;;;3.67;1.80;;;13.90;99.90;;;;;;5073411;28;20580;-69
2022/05/23 03:54:25;;;;;;;3.20;1.88;;;13.90;99.90;;;;;;5073831;28;20036;-68
2022/05/23 03:56:50;;;;;;;5.97;1.95;;;13.70;99.90;;;;;;5073366;28;20494;-68
2022/05/23 03:59:16;;;;;;;3.05;2.13;;;13.90;99.90;;;;;;5056179;28;20070;-68
2022/05/23 04:01:42;;;;;;;5.05;1.90;;;13.90;99.90;;;;;;5073206;28;20040;-68
2022/05/23 04:04:07;;;;;;;3.78;2.17;;;13.90;99.90;;;;;;5091397;28;20036;-68
2022/05/23 04:06:35;;;;;;;3.78;2.00;;;13.90;99.90;;;;;;5073207;28;20068;-68
2022/05/23 04:09:01;;;;;;;6.22;2.10;;;13.60;99.90;;;;;;5072672;28;20040;-68
2022/05/23 04:11:27;;;;;;;5.88;2.10;;;13.90;99.90;;;;;;5072774;28;20494;-68
2022/05/23 04:13:53;;;;;;;4.55;2.47;;;14.00;99.90;;;;;;5073044;28;20044;-68
2022/05/23 04:16:18;;;;;;;6.32;2.85;;;13.70;99.90;;;;;;5073011;28;20044;-68
2022/05/23 04:18:44;;;;;;;7.07;2.22;;;13.70;99.90;;;;;;5056319;28;20047;-68
2022/05/23 04:21:10;;;;;;;6.60;2.72;;;13.60;99.90;;;;;;5090584;28;20079;-68
2022/05/23 04:23:35;;;;;;;4.30;2.08;;;13.70;99.90;;;;;;5073066;28;20130;-68
2022/05/23 04:26:06;;;;;;;5.50;2.30;;;13.60;99.90;;;;;;5057467;28;20043;-68
2022/05/23 04:28:32;;;;;;;4.93;1.92;;;13.90;99.90;;;;;;5094961;28;20040;-68
2022/05/23 04:30:58;;;;;;;5.68;2.00;;;14.00;99.90;;;;;;5094519;28;20040;-68
2022/05/23 04:36:08;;;;;;;6.65;2.38;;;14.00;99.90;;;;;;5094983;28;20126;-68
2022/05/23 04:38:34;;;;;;;4.03;2.35;;;13.90;99.90;;;;;;5095061;28;20067;-68
2022/05/23 04:40:59;;;;;;;8.02;2.65;;;15.00;99.90;;;;;;5059248;28;20446;-68
2022/05/23 04:43:25;;;;;;;3.53;2.70;;;14.00;99.90;;;;;;5094709;28;20434;-69
2022/05/23 04:45:50;;;;;;;5.32;2.60;;;14.10;99.90;;;;;;5094645;28;20059;-69
2022/05/23 04:51:00;;;;;;;6.43;2.40;;;14.10;99.90;;;;;;5093966;28;20040;-68
2022/05/23 04:53:26;;;;;;;5.75;2.28;;;;;;;;;;5076334;28;20545;-68
2022/05/23 04:55:51;;;;;;;3.40;2.55;;;14.30;99.90;;;;;;5094443;28;20028;-69
2022/05/23 04:58:17;;;;;;;4.93;2.40;;;14.20;99.90;;;;;;5076194;28;20032;-69
2022/05/23 05:00:43;;;;;;;8.18;2.85;;;14.30;99.90;;;;;;5093925;28;20036;-69
2022/05/23 05:03:09;;;;;;;4.75;2.60;;;14.30;99.90;;;;;;5094497;28;20043;-69
2022/05/23 05:05:35;;;;;;;7.15;3.15;;;14.40;99.90;;;;;;5094477;28;20039;-68
2022/05/23 05:08:02;;;;;;;3.95;2.15;;;14.20;99.90;;;;;;5094366;28;20050;-69
2022/05/23 05:10:28;;;;;;;5.05;3.10;;;14.10;99.90;;;;;;5075323;28;20137;-69
2022/05/23 05:12:55;;;;;;;4.18;2.60;;;14.20;99.90;;;;;;5076097;28;20047;-69
2022/05/23 05:15:22;;;;;;;7.28;3.40;;;14.30;99.90;;;;;;5075995;28;20138;-69
2022/05/23 05:17:48;;;;;;;4.70;2.83;;;15.70;99.90;;;;;;5094046;28;20131;-69
2022/05/23 05:20:15;;;;;;;4.68;2.95;;;14.60;99.90;;;;;;5075323;28;20123;-69
2022/05/23 05:22:41;;;;;;;5.75;3.60;;;14.70;99.90;;;;;;5094044;28;20044;-69
2022/05/23 05:25:09;;;;;;;4.57;3.03;;;14.60;99.90;;;;;;5075950;28;20054;-68
2022/05/23 05:27:35;;;;;;;7.88;3.15;;;14.50;99.90;;;;;;5075539;28;20089;-68
2022/05/23 05:30:04;;;;;;;7.97;3.20;;;14.60;99.90;;;;;;5093440;28;20036;-68
2022/05/23 05:32:53;;;;;;;4.43;2.55;;;14.40;99.90;;;;;;5075645;28;20119;-68
2022/05/23 05:35:33;;;;;;;4.00;2.90;;;14.70;99.90;;;;;;5093643;28;20058;-68
2022/05/23 05:38:13;;;;;;;7.38;3.10;;;14.70;99.90;;;;;;5092542;28;20072;-68
2022/05/23 05:40:40;;;;;;;5.75;2.90;;;14.80;99.90;;;;;;5093207;28;20119;-68
2022/05/23 05:43:13;;;;;;;4.85;3.35;;;14.70;99.90;;;;;;5093716;28;20044;-69
2022/05/23 05:45:43;;;;;;;5.50;3.10;;;14.80;99.90;;;;;;5058886;28;20048;-69
2022/05/23 05:48:10;;;;;;;7.03;2.97;;;14.70;99.90;;;;;;5093449;28;20105;-69
2022/05/23 05:50:39;;;;;;;4.25;2.92;;;14.70;99.90;;;;;;5066309;28;20035;-69
2022/05/23 05:53:10;;;;;;;8.52;3.38;;;14.60;99.90;;;;;;5069840;28;20048;-70
2022/05/23 05:55:37;;;;;;;7.55;3.67;;;14.80;99.90;;;;;;5091018;28;20557;-69
2022/05/23 05:58:04;;;;;;;7.88;2.92;;;14.90;99.90;;;;;;5090723;28;20402;-69
2022/05/23 06:00:29;;;;;;;6.70;3.13;;;14.90;99.90;;;;;;5099037;28;20501;-69
2022/05/23 06:02:55;;;;;;;5.97;3.80;;;14.80;99.90;;;;;;5071711;28;20131;-69
2022/05/23 06:05:21;;;;;;;18.27;4.72;;;14.90;99.90;;;;;;5072423;28;20067;-69
2022/05/23 06:13:15;;;;;;;5.20;3.00;;;15.00;99.90;;;;;;5102068;28;20039;-68
2022/05/23 06:15:41;;;;;;;5.65;2.75;;;15.30;99.90;;;;;;5090209;28;20111;-68
2022/05/23 06:18:07;;;;;;;6.95;3.60;;;15.50;99.90;;;;;;5088642;28;20055;-69
2022/05/23 06:20:32;;;;;;;5.45;3.60;;;15.50;99.90;;;;;;5089959;28;20180;-69
2022/05/23 06:22:58;;;;;;;8.57;4.10;;;15.60;99.90;;;;;;5098830;28;20032;-67
2022/05/23 06:25:23;;;;;;;6.60;2.70;;;15.80;99.90;;;;;;5092387;28;20497;-69
2022/05/23 06:27:49;;;;;;;8.38;4.10;;;15.80;99.90;;;;;;5090448;28;20070;-69
2022/05/23 06:30:17;;;;;;;5.10;3.78;;;15.90;99.90;;;;;;5090230;28;20176;-69
2022/05/23 06:32:42;;;;;;;7.40;4.22;;;15.80;99.90;;;;;;5084636;28;20577;-69
2022/05/23 06:35:09;;;;;;;6.78;3.47;;;15.70;99.90;;;;;;5087790;22;20077;-71
2022/05/23 06:37:36;;;;;;;6.10;3.78;;;15.80;99.90;;;;;;5109335;28;20120;-71
2022/05/23 06:40:07;;;;;;;6.00;3.60;;;16.00;99.90;;;;;;5057080;28;20173;-72
2022/05/23 06:42:34;;;;;;;7.65;3.75;;;16.00;99.90;;;;;;5059486;28;20085;-71
2022/05/23 06:45:04;;;;;;;5.70;3.83;;;16.20;99.90;;;;;;5067006;28;20040;-70
2022/05/23 06:47:29;;;;;;;8.32;4.55;;;16.00;99.90;;;;;;5061358;28;20047;-69
2022/05/23 06:49:55;;;;;;;6.32;3.70;;;16.20;99.90;;;;;;5088264;28;20032;-70
2022/05/23 06:52:21;;;;;;;7.13;3.88;;;16.10;99.90;;;;;;5063693;28;20032;-70
2022/05/23 06:54:47;;;;;;;9.70;4.90;;;16.20;99.90;;;;;;5055117;28;20044;-70
2022/05/23 06:57:12;;;;;;;8.05;3.63;;;16.20;99.90;;;;;;5070541;28;20117;-70
2022/05/23 06:59:38;;;;;;;9.25;4.35;;;16.40;99.90;;;;;;5080565;28;20448;-69
2022/05/23 07:02:07;;;;;;;5.13;3.50;;;16.10;99.90;;;;;;5052082;28;20547;-69
2022/05/23 07:12:47;;;;;;;8.38;4.03;;;16.60;99.90;;;;;;5082937;28;20040;-70
2022/05/23 07:15:12;;;;;;;6.28;3.80;;;16.90;99.90;;;;;;5062401;28;20550;-70
2022/05/23 07:17:38;;;;;;;6.13;3.63;;;16.70;99.90;;;;;;5063415;28;20506;-71
2022/05/23 07:20:05;;;;;;;7.70;4.32;;;16.60;99.90;;;;;;5063113;28;20513;-69
2022/05/23 07:22:32;;;;;;;7.03;3.78;;;16.70;99.90;;;;;;5081315;28;20044;-70
2022/05/23 07:24:58;;;;;;;5.85;3.75;;;16.90;99.90;;;;;;5080952;28;20036;-69
2022/05/23 07:27:28;;;;;;;6.63;4.00;;;17.20;99.90;;;;;;5049078;28;20498;-69
2022/05/23 07:29:54;;;;;;;8.90;4.00;;;17.30;99.90;;;;;;5059718;28;20051;-70
2022/05/23 07:32:20;;;;;;;7.20;3.97;;;17.50;99.90;;;;;;5088025;28;20051;-70
2022/05/23 07:34:45;;;;;;;7.68;4.35;;;17.50;99.90;;;;;;5072744;28;20028;-69
2022/05/23 07:37:11;;;;;;;5.60;4.35;;;17.50;99.90;;;;;;5067435;28;20123;-70
2022/05/23 07:39:39;;;;;;;5.45;4.35;;;17.70;99.90;;;;;;5051482;28;20078;-70
2022/05/23 07:42:07;;;;;;;6.88;4.20;;;18.60;99.90;;;;;;5040083;28;20036;-68
2022/05/23 07:44:33;;;;;;;7.55;3.58;;;18.20;99.90;;;;;;5051313;28;20124;-70
2022/05/23 07:46:59;;;;;;;7.15;3.88;;;18.40;99.90;;;;;;5065162;28;20048;-70
2022/05/23 07:49:25;;;;;;;7.30;4.32;;;18.70;99.90;;;;;;5059919;28;20398;-70
2022/05/23 07:51:53;;;;;;;8.02;5.13;;;18.50;99.90;;;;;;5083610;28;20041;-70
2022/05/23 08:02:32;;;;;;;7.07;4.72;;;19.30;99.90;;;;;;5066912;28;20040;-69
2022/05/23 08:04:58;;;;;;;6.68;4.03;;;18.70;99.90;;;;;;5066197;28;20047;-70
2022/05/23 08:07:28;;;;;;;8.48;4.57;;;18.60;99.90;;;;;;5068909;28;20048;-70
2022/05/23 08:09:54;;;;;;;12.35;4.63;;;18.90;99.90;;;;;;5074659;28;20032;-70
2022/05/23 08:12:19;;;;;;;8.65;4.70;;;18.80;99.90;;;;;;5062353;28;20496;-70
2022/05/23 08:14:45;;;;;;;7.90;4.05;;;18.80;99.90;;;;;;5065272;28;20028;-70
2022/05/23 08:17:11;;;;;;;7.50;4.75;;;18.80;99.90;;;;;;5087936;28;20032;-70
2022/05/23 08:19:37;;;;;;;9.50;4.50;;;18.70;99.90;;;;;;5043022;28;20089;-70
2022/05/23 08:22:04;;;;;;;7.70;4.85;;;18.80;99.90;;;;;;5083183;28;20504;-70
2022/05/23 08:24:29;;;;;;;7.32;4.55;;;18.80;99.90;;;;;;5082583;28;20468;-70
2022/05/23 08:26:55;;;;;;;7.50;4.38;;;18.70;99.90;;;;;;5068918;28;20146;-70
2022/05/23 08:29:21;;;;;;;8.35;4.55;;;18.70;99.90;;;;;;5082209;28;20482;-70
2022/05/23 08:31:48;;;;;;;10.15;5.47;;;19.80;99.90;;;;;;5080849;28;20039;-69
2022/05/23 08:34:14;;;;;;;9.70;5.35;;;19.20;99.90;;;;;;5064485;28;20033;-69
2022/05/23 08:36:39;;;;;;;9.88;5.57;;;19.30;99.90;;;;;;5057376;28;20052;-69
2022/05/23 08:39:05;;;;;;;7.35;4.45;;;19.30;99.90;;;;;;5062546;28;20062;-70
2022/05/23 08:41:37;;;;;;;9.77;5.53;;;19.90;99.90;;;;;;5047577;28;20048;-70
2022/05/23 08:44:23;;;;;;;7.77;4.33;;;19.60;99.90;;;;;;5069573;28;20043;-71
2022/05/23 08:46:57;;;;;;;7.90;4.60;;;19.70;99.90;;;;;;5064597;28;20119;-69
2022/05/23 08:49:47;;;;;;;10.77;5.38;;;20.10;99.90;;;;;;5075433;28;20033;-69
2022/05/23 08:52:38;;;;;;;10.07;5.38;;;20.40;99.90;;;;;;5051793;28;20028;-69
2022/05/23 08:55:30;;;;;;;8.63;5.00;;;20.40;99.90;;;;;;5069563;28;20085;-69
2022/05/23 08:58:11;;;;;;;13.27;5.68;;;20.70;99.90;;;;;;5079389;28;20046;-69
2022/05/23 09:00:41;;;;;;;12.75;6.55;;;20.60;99.90;;;;;;5077204;28;20095;-69
2022/05/23 09:03:15;;;;;;;8.70;4.57;;;21.70;99.90;;;;;;5057769;28;20478;-70
2022/05/23 09:05:46;;;;;;;8.75;4.50;;;21.00;99.90;;;;;;5085457;28;20040;-69
2022/05/23 09:08:16;;;;;;;12.00;5.20;;;21.20;99.90;;;;;;5057505;28;20047;-69
2022/05/23 09:10:57;;;;;;;9.98;4.57;;;21.40;99.90;;;;;;5068171;28;20547;-68
2022/05/23 09:13:27;;;;;;;8.90;4.55;;;21.40;99.90;;;;;;5081069;28;20032;-68
2022/05/23 09:15:59;;;;;;;7.22;4.28;;;21.40;99.90;;;;;;5065451;28;20040;-69
2022/05/23 09:18:27;;;;;;;11.38;4.72;;;21.90;99.90;;;;;;5067779;28;20032;-69
2022/05/23 09:20:59;;;;;;;8.35;4.78;;;21.80;99.90;;;;;;5040028;28;20563;-69
2022/05/23 09:23:26;;;;;;;7.63;4.88;;;21.70;99.90;;;;;;5058045;28;20032;-71
2022/05/23 09:25:53;;;;;;;10.75;4.88;;;22.00;99.90;;;;;;5069054;28;20119;-69
2022/05/23 09:28:29;;;;;;;8.07;4.95;;;22.10;99.90;;;;;;5056865;28;20727;-69
2022/05/23 09:31:04;;;;;;;8.10;4.35;;;23.00;99.90;;;;;;5087420;28;20035;-68
2022/05/23 09:33:31;;;;;;;8.95;5.10;;;22.10;99.90;;;;;;5059229;28;20398;-69
2022/05/23 09:36:36;;;;;;;9.23;4.85;;;22.00;99.90;;;;;;5069133;28;20089;-69
2022/05/23 09:39:11;;;;;;;9.50;4.93;;;22.10;99.90;;;;;;4987546;28;20038;-69
2022/05/23 09:49:55;;;;;;;9.85;4.93;;;21.90;99.90;;;;;;5082890;28;20037;-69
2022/05/23 09:52:32;;;;;;;9.98;5.40;;;22.00;99.90;;;;;;5078617;28;20143;-69
2022/05/23 09:55:28;;;;;;;9.82;4.95;;;21.90;99.90;;;;;;5083911;28;20047;-69
2022/05/23 09:57:56;;;;;;;6.53;4.53;;;22.30;99.90;;;;;;5064068;28;20131;-69
2022/05/23 10:00:25;;;;;;;9.45;4.70;;;22.20;99.90;;;;;;5079719;28;20093;-70
2022/05/23 10:02:51;;;;;;;8.98;4.35;;;22.50;99.90;;;;;;5065763;28;20043;-69
2022/05/23 10:05:38;;;;;;;7.95;4.55;;;22.40;99.90;;;;;;5058379;28;20035;-69
2022/05/23 10:08:06;;;;;;;6.15;4.22;;;22.90;99.90;;;;;;5086294;28;20440;-69
2022/05/23 10:10:51;;;;;;;7.25;4.07;;;22.90;99.90;;;;;;5080272;28;20033;-69
2022/05/23 10:13:22;;;;;;;10.90;4.53;;;23.10;99.90;;;;;;5082455;28;20114;-69
2022/05/23 10:15:53;;;;;;;6.13;3.40;;;23.50;99.90;;;;;;5066497;28;20040;-69
2022/05/23 10:18:33;;;;;;;5.60;3.85;;;23.90;99.90;;;;;;5057123;28;20062;-69
2022/05/23 10:21:01;;;;;;;10.80;5.00;;;24.00;99.60;;;;;;5065139;28;20541;-70
2022/05/23 10:23:33;;;;;;;9.13;5.68;;;24.40;99.90;;;;;;5063457;28;20036;-69
2022/05/23 10:26:11;;;;;;;6.63;4.50;;;24.00;99.90;;;;;;5051653;28;20040;-69
2022/05/23 10:28:55;;;;;;;9.80;4.70;;;23.80;99.60;;;;;;5064109;28;20040;-69
2022/05/23 10:31:30;;;;;;;7.40;4.15;;;23.90;99.60;;;;;;5061776;28;20106;-69
2022/05/23 10:34:04;;;;;;;11.07;4.72;;;23.90;99.90;;;;;;5081255;28;20036;-69
2022/05/23 10:36:31;;;;;;;5.72;4.20;;;23.80;99.90;;;;;;5055112;28;20040;-69
2022/05/23 10:42:07;;;;;;;11.48;4.35;;;24.30;99.90;;;;;;5080180;28;20048;-69
2022/05/23 10:45:16;;;;;;;8.10;3.50;;;25.40;99.90;;;;;;5082502;28;20158;-69
2022/05/23 10:48:12;;;;;;;11.13;2.97;;;24.40;99.10;;;;;;4996364;28;20579;-70
2022/05/23 10:50:50;;;;;;;8.80;2.70;;;23.80;98.20;;;;;;5074224;28;20070;-70
2022/05/23 10:53:24;;;;;;;8.32;2.42;;;24.60;98.20;;;;;;5081633;28;20028;-70
2022/05/23 10:56:11;;;;;;;4.05;2.20;;;24.50;98.40;;;;;;5055210;28;20037;-70
2022/05/23 10:59:12;;;;;;;6.85;2.35;;;24.30;97.80;;;;;;5082459;28;20140;-70
2022/05/23 11:01:58;;;;;;;5.30;3.25;;;24.30;97.70;;;;;;5056579;28;20430;-72
2022/05/23 11:04:49;;;;;;;5.10;2.17;;;24.50;98.60;;;;;;5057189;28;20036;-72
2022/05/23 11:07:33;;;;;;;5.70;2.30;;;24.10;98.10;;;;;;5044815;28;20042;-71
2022/05/23 11:10:22;;;;;;;4.25;2.10;;;24.40;98.70;;;;;;5076646;28;20032;-71
2022/05/23 11:13:11;;;;;;;4.20;1.95;;;24.50;98.40;;;;;;5067197;28;20050;-71
2022/05/23 11:15:46;;;;;;;2.85;2.20;;;24.80;97.20;;;;;;5064889;28;20052;-71
2022/05/23 11:18:45;;;;;;;3.78;2.08;;;24.60;97.30;;;;;;5074885;28;20066;-71
2022/05/23 11:21:19;;;;;;;6.30;2.22;;;24.70;97.40;;;;;;5065613;28;20036;-71
2022/05/23 11:23:53;;;;;;;4.40;2.00;;;24.60;98.00;;;;;;5078636;28;20101;-71
2022/05/23 11:26:25;;;;;;;3.15;1.77;;;25.60;98.20;;;;;;5070416;28;20046;-71
2022/05/23 11:35:10;;;;;;;3.42;2.63;;;25.50;97.40;;;;;;5059849;28;20425;-71
2022/05/23 11:37:49;;;;;;;6.53;2.58;;;25.10;97.30;;;;;;5070426;28;20047;-71
2022/05/23 11:40:30;;;;;;;6.22;2.28;;;25.30;96.30;;;;;;5058696;28;20059;-70
2022/05/23 11:43:03;;;;;;;5.38;2.25;;;25.30;96.10;;;;;;5078484;28;20118;-71
2022/05/23 11:48:47;;;;;;;4.55;2.00;;;25.00;96.70;;;;;;5059921;28;20048;-70
2022/05/23 11:51:12;;;;;;;3.35;2.45;;;24.70;96.70;;;;;;5067488;28;20264;-72
2022/05/23 11:53:57;;;;;;;2.88;2.17;;;24.70;96.70;;;;;;5065602;28;20163;-71
2022/05/23 11:56:36;;;;;;;5.55;2.55;;;24.90;96.50;;;;;;5060267;28;20040;-71
2022/05/23 11:59:04;;;;;;;5.95;2.70;;;24.80;97.10;;;;;;5065492;28;20040;-71
2022/05/23 12:01:30;;;;;;;4.95;1.90;;;24.70;97.20;;;;;;5059881;28;20043;-71
2022/05/23 12:03:56;;;;;;;3.78;1.75;;;24.60;97.20;;;;;;5076822;28;20033;-71
2022/05/23 12:06:22;;;;;;;4.28;1.98;;;24.50;97.10;;;;;;5044915;28;20413;-71
2022/05/23 12:09:02;;;;;;;10.05;2.83;;;24.50;97.30;;;;;;5080379;28;20039;-72
2022/05/23 12:11:31;;;;;;;4.20;2.38;;;24.50;97.60;;;;;;5059213;28;20058;-71
2022/05/23 12:14:27;;;;;;;3.42;2.03;;;24.50;97.00;;;;;;5063431;28;20056;-71
2022/05/23 12:16:56;;;;;;;4.65;2.05;;;24.70;97.30;;;;;;5061343;28;20050;-70
2022/05/23 12:19:40;;;;;;;5.88;2.22;;;24.70;97.70;;;;;;5058610;28;20039;-71
2022/05/23 12:22:26;;;;;;;5.70;2.20;;;25.00;97.60;;;;;;5060923;28;20044;-71
2022/05/23 12:25:10;;;;;;;6.40;2.65;;;24.70;96.30;;;;;;5080953;28;20040;-71
2022/05/23 12:27:39;;;;;;;6.72;2.47;;;24.60;97.10;;;;;;5062463;28;20059;-71
2022/05/23 12:30:17;;;;;;;3.30;2.05;;;24.50;97.40;;;;;;5055519;28;20063;-71
2022/05/23 12:33:06;;;;;;;5.35;2.10;;;25.80;97.70;;;;;;5062772;28;20040;-71
2022/05/23 12:35:40;;;;;;;5.03;1.73;;;24.50;97.10;;;;;;5068019;28;20409;-71
2022/05/23 12:38:18;;;;;;;5.90;1.98;;;24.40;97.60;;;;;;5057103;28;20045;-71
2022/05/23 12:41:10;;;;;;;4.50;2.05;;;24.70;97.30;;;;;;5060182;28;20044;-72
2022/05/23 12:43:50;;;;;;;4.68;1.80;;;24.70;98.50;;;;;;5078929;28;20128;-72
2022/05/23 12:46:35;;;;;;;3.38;1.60;;;24.60;96.80;;;;;;5062392;28;20115;-71
2022/05/23 12:49:33;;;;;;;3.90;1.90;;;24.40;96.90;;;;;;5061849;28;20036;-71
2022/05/23 12:52:17;;;;;;;6.38;2.90;;;24.80;97.20;;;;;;5063283;28;20070;-71
2022/05/23 12:55:01;;;;;;;3.63;1.60;;;24.60;96.80;;;;;;5069215;28;20043;-71
2022/05/23 12:58:00;;;;;;;4.40;2.10;;;24.30;96.90;;;;;;5061079;28;20043;-70
2022/05/23 13:00:38;;;;;;;6.85;1.90;;;24.00;98.00;;;;;;5086873;28;20043;-70
2022/05/23 13:03:24;;;;;;;8.15;2.22;;;23.70;98.10;;;;;;5069426;28;20051;-70
2022/05/23 13:06:05;;;;;;;6.00;2.30;;;23.70;99.00;;;;;;5084383;28;20044;-70
2022/05/23 13:08:35;;;;;;;4.28;2.35;;;23.50;99.90;;;;;;5064369;28;20114;-70
2022/05/23 13:11:05;;;;;;;5.68;2.70;;;23.30;99.90;;;;;;5080552;28;20051;-70
2022/05/23 13:13:40;;;;;;;5.05;2.42;;;23.00;99.90;;;;;;5066935;28;20126;-69
2022/05/23 13:16:27;;;;;;;7.35;2.85;;;22.90;99.90;;;;;;5066521;28;20035;-69
2022/05/23 13:24:56;;;;;;;9.95;2.95;;;22.30;99.90;;;;;;5074476;28;20074;-71
2022/05/23 13:27:26;;;;;;;6.68;3.30;;;22.30;99.90;;;;;;5067548;28;20111;-72
2022/05/23 13:30:01;;;;;;;5.15;3.17;;;22.30;99.90;;;;;;5070675;28;20453;-70
2022/05/23 13:32:28;;;;;;;7.65;3.42;;;22.30;99.90;;;;;;5072261;28;20085;-71
2022/05/23 13:34:56;;;;;;;5.00;2.67;;;22.30;99.90;;;;;;5065532;28;20040;-72
2022/05/23 13:37:26;;;;;;;5.88;2.78;;;22.50;99.90;;;;;;5069137;28;20071;-72
2022/05/23 13:39:52;;;;;;;6.43;3.15;;;22.60;99.90;;;;;;5080363;28;20059;-71
2022/05/23 13:42:23;;;;;;;3.20;2.90;;;22.60;99.90;;;;;;5048665;28;20455;-70
2022/05/23 13:44:50;;;;;;;5.97;3.17;;;21.40;99.90;;;;;;5064587;28;20044;-71
2022/05/23 13:47:27;;;;;;;4.60;3.47;;;22.90;99.90;;;;;;5043332;28;20040;-71
2022/05/23 13:50:01;;;;;;;4.28;3.03;;;22.80;99.90;;;;;;5062841;28;20044;-71
2022/05/23 13:52:33;;;;;;;4.97;2.75;;;23.10;99.90;;;;;;5064202;28;20115;-70
2022/05/23 13:55:09;;;;;;;6.28;3.15;;;22.90;99.90;;;;;;5078813;28;20036;-70
2022/05/23 13:57:49;;;;;;;4.93;2.92;;;22.90;99.90;;;;;;5070159;28;20045;-70
2022/05/23 14:00:20;;;;;;;6.60;2.80;;;22.60;99.90;;;;;;5057753;28;20097;-71
2022/05/23 14:02:54;;;;;;;3.92;3.03;;;23.00;99.90;;;;;;5064545;28;20040;-70
2022/05/23 14:05:20;;;;;;;6.28;2.80;;;22.90;99.90;;;;;;5082759;28;20042;-70
2022/05/23 14:07:46;;;;;;;4.38;2.85;;;23.00;99.90;;;;;;5063459;28;20417;-70
2022/05/23 14:10:22;;;;;;;3.90;2.50;;;22.90;99.90;;;;;;5080440;28;20036;-70
2022/05/23 14:12:48;;;;;;;5.38;2.60;;;22.90;99.90;;;;;;5085102;28;20043;-71
2022/05/23 14:15:24;;;;;;;5.93;3.13;;;22.90;99.90;;;;;;5080202;28;20032;-70
2022/05/23 14:17:51;;;;;;;6.65;2.90;;;22.90;99.90;;;;;;5089028;28;20047;-72